Time;durP1;ratioP1;P1;durP2;ratioP2;P2;SDS_P1;SDS_P2;PMS_P1;PMS_P2;Temp;Humidity;BMP_temperature;BMP_pressure;BME280_temperature;BME280_humidity;BME280_pressure;Samples;Min_cycle;Max_cycle;Signal;HPM_P1;HPM_P2
2022/07/15 00:00:15;;;;;;;4.63;0.77;;;14.50;99.90;;;;;;5056810;28;20083;-65
2022/07/15 00:02:41;;;;;;;7.75;0.90;;;14.50;99.90;;;;;;5056840;28;20048;-65
2022/07/15 00:05:08;;;;;;;11.18;0.90;;;14.50;99.90;;;;;;5056998;28;20416;-65
2022/07/15 00:07:34;;;;;;;5.22;0.85;;;14.60;99.90;;;;;;5056067;28;20451;-66
2022/07/15 00:10:16;;;;;;;9.00;0.75;;;14.60;99.90;;;;;;5056875;28;20064;-65
2022/07/15 00:12:44;;;;;;;4.63;0.70;;;14.70;99.90;;;;;;5056799;28;20044;-66
2022/07/15 00:15:10;;;;;;;4.63;0.70;;;14.50;99.90;;;;;;5056802;28;20063;-66
2022/07/15 00:17:36;;;;;;;4.72;0.65;;;14.50;99.90;;;;;;5055463;28;20057;-66
2022/07/15 00:20:02;;;;;;;5.30;0.73;;;14.50;99.90;;;;;;5055139;28;20067;-66
2022/07/15 00:22:28;;;;;;;4.32;0.77;;;14.50;99.90;;;;;;5056644;28;20041;-66
2022/07/15 00:24:54;;;;;;;3.63;0.77;;;14.50;99.90;;;;;;5056329;28;20385;-66
2022/07/15 00:27:19;;;;;;;2.92;0.77;;;14.50;99.90;;;;;;5056552;28;20131;-66
2022/07/15 00:29:45;;;;;;;4.47;0.60;;;14.70;99.90;;;;;;5055338;28;20396;-66
2022/07/15 00:32:11;;;;;;;4.70;0.65;;;14.60;99.90;;;;;;5056443;28;20048;-66
2022/07/15 00:34:36;;;;;;;4.07;0.52;;;14.50;99.90;;;;;;5056208;28;20060;-66
2022/07/15 00:37:02;;;;;;;4.45;0.60;;;14.50;99.90;;;;;;5055096;28;20045;-66
2022/07/15 00:39:28;;;;;;;4.00;0.70;;;14.50;99.90;;;;;;5055723;28;20127;-66
2022/07/15 00:41:54;;;;;;;4.43;0.63;;;14.50;99.90;;;;;;5056226;28;20095;-66
2022/07/15 00:44:19;;;;;;;2.42;0.60;;;14.50;99.90;;;;;;5056128;28;20101;-66
2022/07/15 00:46:45;;;;;;;4.43;0.70;;;14.80;99.90;;;;;;5055977;28;20047;-66
2022/07/15 00:49:11;;;;;;;2.92;0.70;;;14.40;99.90;;;;;;5054800;28;20382;-66
2022/07/15 00:51:42;;;;;;;4.53;0.90;;;14.60;99.90;;;;;;5055743;28;20049;-66
2022/07/15 00:54:13;;;;;;;6.22;0.80;;;14.50;99.90;;;;;;5056617;28;20471;-65
2022/07/15 00:56:45;;;;;;;4.93;0.82;;;14.40;99.90;;;;;;5055677;28;20131;-65
2022/07/15 00:59:12;;;;;;;3.38;0.60;;;14.40;99.90;;;;;;5054977;28;20056;-65
2022/07/15 01:01:39;;;;;;;3.60;0.70;;;14.50;99.90;;;;;;5055678;28;20124;-66
2022/07/15 01:04:05;;;;;;;3.45;0.70;;;14.40;99.90;;;;;;5056305;28;20100;-65
2022/07/15 01:06:32;;;;;;;5.97;0.80;;;14.60;99.90;;;;;;5054637;28;20084;-66
2022/07/15 01:08:59;;;;;;;4.38;0.60;;;14.60;99.90;;;;;;5054275;28;20099;-66
2022/07/15 01:11:25;;;;;;;6.05;0.90;;;14.50;99.90;;;;;;5055621;28;20040;-66
2022/07/15 01:13:51;;;;;;;4.68;0.60;;;14.50;99.90;;;;;;5055599;28;20057;-66
2022/07/15 01:16:17;;;;;;;5.50;0.60;;;14.60;99.90;;;;;;5055360;28;20044;-66
2022/07/15 01:18:43;;;;;;;3.88;0.68;;;14.60;99.90;;;;;;5055496;28;20041;-66
2022/07/15 01:21:08;;;;;;;5.13;0.68;;;14.50;99.90;;;;;;5054852;28;20051;-66
2022/07/15 01:23:36;;;;;;;4.18;0.77;;;14.50;99.90;;;;;;5054447;28;20045;-66
2022/07/15 01:26:02;;;;;;;3.83;0.60;;;14.50;99.90;;;;;;5055208;28;20499;-66
2022/07/15 01:28:27;;;;;;;5.05;0.60;;;14.60;99.90;;;;;;5055247;28;20041;-65
2022/07/15 01:30:53;;;;;;;5.03;0.60;;;14.60;99.90;;;;;;5055181;28;20049;-66
2022/07/15 01:33:19;;;;;;;2.60;0.57;;;14.60;99.90;;;;;;5053919;28;20048;-65
2022/07/15 01:35:44;;;;;;;4.57;0.55;;;14.60;99.90;;;;;;5055351;28;20047;-65
2022/07/15 01:38:10;;;;;;;3.67;0.85;;;14.50;99.90;;;;;;5054322;28;20041;-65
2022/07/15 01:40:36;;;;;;;3.33;0.60;;;14.50;99.90;;;;;;5055233;28;20055;-65
2022/07/15 01:43:01;;;;;;;4.63;0.82;;;14.60;99.90;;;;;;5055105;28;20393;-65
2022/07/15 01:45:27;;;;;;;4.45;0.80;;;14.50;99.90;;;;;;5054923;28;20099;-66
2022/07/15 01:47:53;;;;;;;3.28;0.50;;;14.60;99.90;;;;;;5053604;28;20551;-65
2022/07/15 01:50:20;;;;;;;7.60;0.80;;;14.60;99.90;;;;;;5053851;28;20058;-65
2022/07/15 01:52:45;;;;;;;4.78;0.57;;;14.60;99.90;;;;;;5055223;28;20063;-65
2022/07/15 01:55:11;;;;;;;3.53;0.70;;;14.50;99.90;;;;;;5053642;28;20041;-64
2022/07/15 01:57:37;;;;;;;5.30;0.90;;;14.60;99.90;;;;;;5054505;28;20464;-65
2022/07/15 02:00:06;;;;;;;2.17;0.60;;;14.50;99.90;;;;;;5054326;28;20084;-65
2022/07/15 02:02:32;;;;;;;4.82;0.93;;;14.50;99.90;;;;;;5053039;28;20539;-65
2022/07/15 02:04:57;;;;;;;3.58;0.55;;;14.50;99.90;;;;;;5054758;28;20045;-65
2022/07/15 02:07:23;;;;;;;3.80;0.65;;;14.50;99.90;;;;;;5053847;28;20070;-65
2022/07/15 02:09:48;;;;;;;3.28;0.60;;;14.50;99.90;;;;;;5053130;28;20053;-65
2022/07/15 02:12:14;;;;;;;4.00;1.00;;;14.40;99.90;;;;;;5053345;28;20504;-64
2022/07/15 02:14:40;;;;;;;4.50;0.60;;;14.50;99.90;;;;;;5053073;28;20425;-65
2022/07/15 02:17:07;;;;;;;3.40;0.60;;;14.40;99.90;;;;;;5054493;28;20092;-65
2022/07/15 02:19:33;;;;;;;5.63;0.60;;;14.40;99.90;;;;;;5054356;28;20045;-65
2022/07/15 02:21:58;;;;;;;5.53;0.60;;;14.40;99.90;;;;;;5054252;28;20041;-65
2022/07/15 02:24:24;;;;;;;3.33;0.60;;;14.40;99.90;;;;;;5020256;28;20052;-65
2022/07/15 02:26:50;;;;;;;4.90;0.70;;;14.70;99.90;;;;;;5054174;28;20103;-66
2022/07/15 02:29:16;;;;;;;3.20;0.70;;;14.40;99.90;;;;;;5054000;28;20476;-66
2022/07/15 02:31:42;;;;;;;3.75;0.70;;;14.30;99.90;;;;;;5053890;28;20045;-66
2022/07/15 02:34:08;;;;;;;4.57;0.68;;;14.30;99.90;;;;;;5052901;28;20439;-66
2022/07/15 02:36:35;;;;;;;4.82;0.50;;;14.50;99.90;;;;;;5053960;28;20055;-66
2022/07/15 02:39:02;;;;;;;5.05;0.80;;;14.30;99.90;;;;;;5053605;28;20124;-65
2022/07/15 02:41:29;;;;;;;3.60;0.57;;;14.20;99.90;;;;;;5052844;28;20057;-66
2022/07/15 02:43:55;;;;;;;4.13;0.68;;;14.20;99.90;;;;;;5052536;28;20123;-66
2022/07/15 02:46:21;;;;;;;3.90;0.70;;;14.20;99.90;;;;;;5053607;28;20104;-66
2022/07/15 02:48:46;;;;;;;3.50;0.60;;;14.40;99.90;;;;;;5053856;28;20095;-66
2022/07/15 02:51:13;;;;;;;4.97;0.75;;;14.10;99.90;;;;;;5053711;28;20045;-66
2022/07/15 02:53:39;;;;;;;4.18;0.60;;;14.10;99.90;;;;;;5053681;28;20102;-66
2022/07/15 02:56:05;;;;;;;4.05;0.70;;;14.00;99.90;;;;;;5053571;28;20439;-66
2022/07/15 02:58:31;;;;;;;2.38;0.70;;;14.00;99.90;;;;;;5052343;28;20107;-66
2022/07/15 03:00:58;;;;;;;2.72;0.60;;;14.00;99.90;;;;;;5053364;28;20049;-66
2022/07/15 03:03:24;;;;;;;2.92;0.60;;;13.90;99.90;;;;;;5053824;28;20063;-66
2022/07/15 03:05:50;;;;;;;3.17;0.70;;;14.10;99.90;;;;;;5053524;28;20485;-66
2022/07/15 03:08:16;;;;;;;4.72;0.63;;;13.80;99.90;;;;;;5053045;28;20517;-66
2022/07/15 03:10:42;;;;;;;3.67;0.60;;;13.80;99.90;;;;;;5053511;28;20045;-66
2022/07/15 03:13:08;;;;;;;3.50;0.50;;;13.80;99.90;;;;;;5051416;28;20045;-66
2022/07/15 03:15:34;;;;;;;2.13;0.70;;;13.80;99.90;;;;;;5052221;28;20128;-66
2022/07/15 03:18:00;;;;;;;3.55;0.60;;;13.80;99.90;;;;;;5053413;28;20041;-65
2022/07/15 03:20:26;;;;;;;3.35;0.60;;;14.00;99.90;;;;;;5053469;28;20103;-65
2022/07/15 03:22:52;;;;;;;4.28;0.70;;;13.80;99.90;;;;;;5053378;28;20059;-65
2022/07/15 03:25:18;;;;;;;1.98;0.47;;;14.00;99.90;;;;;;5052281;28;20472;-65
2022/07/15 03:27:43;;;;;;;2.08;0.57;;;13.90;99.90;;;;;;5053070;28;20041;-65
2022/07/15 03:30:09;;;;;;;1.33;0.30;;;13.90;99.90;;;;;;5053465;28;20045;-66
2022/07/15 03:32:35;;;;;;;3.47;0.60;;;13.90;99.90;;;;;;5053058;28;20041;-66
2022/07/15 03:35:01;;;;;;;1.60;0.60;;;13.80;99.90;;;;;;5052663;28;20056;-66
2022/07/15 03:37:27;;;;;;;2.05;0.43;;;13.80;99.90;;;;;;5052018;28;20059;-66
2022/07/15 03:39:52;;;;;;;3.88;0.50;;;14.10;99.90;;;;;;5034807;28;20041;-66
2022/07/15 03:42:18;;;;;;;3.20;0.70;;;13.70;99.90;;;;;;5052966;28;20131;-66
2022/07/15 03:44:44;;;;;;;2.20;0.43;;;13.70;99.90;;;;;;5053192;28;20131;-65
2022/07/15 03:47:09;;;;;;;2.60;0.40;;;13.80;99.90;;;;;;5053153;28;20047;-65
2022/07/15 03:49:35;;;;;;;1.88;0.40;;;13.80;99.90;;;;;;5053146;28;20365;-65
2022/07/15 03:52:01;;;;;;;3.05;0.38;;;13.70;99.90;;;;;;5053000;28;20404;-66
2022/07/15 03:54:26;;;;;;;3.55;0.40;;;13.80;99.90;;;;;;5053157;28;20067;-66
2022/07/15 03:56:52;;;;;;;3.38;0.52;;;14.00;99.90;;;;;;5052616;28;20076;-66
2022/07/15 03:59:21;;;;;;;2.40;0.47;;;13.70;99.90;;;;;;5051822;28;20071;-66
2022/07/15 04:01:52;;;;;;;3.00;0.50;;;13.60;99.90;;;;;;5052756;28;20492;-66
2022/07/15 04:04:19;;;;;;;2.17;0.40;;;13.70;99.90;;;;;;5051846;28;20081;-66
2022/07/15 04:06:44;;;;;;;4.00;0.60;;;13.70;99.90;;;;;;5052835;28;20063;-66
2022/07/15 04:09:12;;;;;;;3.40;0.60;;;13.70;99.90;;;;;;5052330;28;20045;-66
2022/07/15 04:11:41;;;;;;;2.88;0.55;;;13.90;99.90;;;;;;5052602;28;20140;-67
2022/07/15 04:14:09;;;;;;;4.55;0.50;;;13.80;99.90;;;;;;5051834;28;20091;-66
2022/07/15 04:16:34;;;;;;;3.63;0.50;;;13.90;99.90;;;;;;5052655;28;20473;-66
2022/07/15 04:19:00;;;;;;;2.20;0.40;;;13.80;99.90;;;;;;5052601;28;20071;-64
2022/07/15 04:21:26;;;;;;;3.75;1.02;;;13.80;99.90;;;;;;5051833;28;20049;-65
2022/07/15 04:23:51;;;;;;;5.72;0.80;;;13.80;99.90;;;;;;5053208;28;20049;-66
2022/07/15 04:26:17;;;;;;;3.00;0.47;;;13.90;99.90;;;;;;5038737;28;20049;-65
2022/07/15 04:28:43;;;;;;;3.35;0.57;;;13.90;99.90;;;;;;5055333;28;20060;-65
2022/07/15 04:31:08;;;;;;;3.10;0.75;;;13.90;99.90;;;;;;5056672;28;20063;-66
2022/07/15 04:33:34;;;;;;;3.20;1.10;;;13.90;99.90;;;;;;5056369;28;20051;-65
2022/07/15 04:36:00;;;;;;;3.42;0.68;;;14.00;99.90;;;;;;5056205;28;20159;-65
2022/07/15 04:38:25;;;;;;;3.75;0.68;;;13.90;99.90;;;;;;5055595;28;20124;-65
2022/07/15 04:40:51;;;;;;;1.90;0.60;;;13.90;99.90;;;;;;5054962;28;20049;-66
2022/07/15 04:43:17;;;;;;;3.25;0.65;;;14.00;99.90;;;;;;5056332;28;20048;-65
2022/07/15 04:45:43;;;;;;;4.20;0.70;;;14.10;99.90;;;;;;5056343;28;20183;-66
2022/07/15 04:51:01;;;;;;;1.83;0.50;;;13.90;99.90;;;;;;5047466;28;20131;-66
2022/07/15 04:53:26;;;;;;;2.40;0.50;;;14.00;99.90;;;;;;5055787;28;20534;-66
2022/07/15 04:55:52;;;;;;;1.67;0.43;;;14.00;99.90;;;;;;5056069;28;20162;-65
2022/07/15 04:58:18;;;;;;;2.85;0.43;;;13.90;99.90;;;;;;5054459;28;20076;-65
2022/07/15 05:00:46;;;;;;;2.90;0.40;;;14.00;99.90;;;;;;5038309;28;20048;-66
2022/07/15 05:03:12;;;;;;;2.75;0.50;;;14.00;99.90;;;;;;5055764;28;20071;-65
2022/07/15 05:05:38;;;;;;;4.50;0.77;;;14.00;99.90;;;;;;5055836;28;20128;-65
2022/07/15 05:08:04;;;;;;;1.85;0.40;;;14.00;99.90;;;;;;5054967;28;20515;-65
2022/07/15 05:10:30;;;;;;;3.42;0.40;;;13.90;99.90;;;;;;5055727;28;20092;-66
2022/07/15 05:12:57;;;;;;;3.13;0.47;;;14.00;99.90;;;;;;5055675;28;20080;-65
2022/07/15 05:15:23;;;;;;;3.75;0.60;;;14.00;99.90;;;;;;5055618;28;20049;-65
2022/07/15 05:17:49;;;;;;;3.97;0.65;;;14.00;99.90;;;;;;5054573;28;20128;-65
2022/07/15 05:20:14;;;;;;;1.20;0.40;;;14.00;99.90;;;;;;5055256;28;20132;-65
2022/07/15 05:22:40;;;;;;;3.13;0.70;;;14.10;99.90;;;;;;5055243;28;20052;-66
2022/07/15 05:25:06;;;;;;;5.07;0.60;;;14.10;99.90;;;;;;5054496;28;20405;-66
2022/07/15 05:27:32;;;;;;;3.17;0.60;;;14.20;99.90;;;;;;5054532;28;20451;-66
2022/07/15 05:29:58;;;;;;;3.22;0.60;;;14.20;99.90;;;;;;5054140;28;20063;-65
2022/07/15 05:32:23;;;;;;;2.88;0.80;;;14.20;99.90;;;;;;5054075;28;20529;-65
2022/07/15 05:34:49;;;;;;;5.10;0.77;;;14.20;99.90;;;;;;5054823;28;20049;-65
2022/07/15 05:37:14;;;;;;;5.57;0.60;;;14.30;99.90;;;;;;5054476;28;20496;-66
2022/07/15 05:39:53;;;;;;;1.83;0.60;;;14.30;99.90;;;;;;5054568;28;20045;-65
2022/07/15 05:42:20;;;;;;;1.83;0.50;;;14.30;99.90;;;;;;5054267;28;20090;-66
2022/07/15 05:44:46;;;;;;;4.30;0.50;;;14.30;99.90;;;;;;5053811;28;20077;-65
2022/07/15 05:47:12;;;;;;;1.80;0.50;;;14.40;99.90;;;;;;5054049;28;20080;-66
2022/07/15 05:49:38;;;;;;;2.17;0.57;;;14.40;99.90;;;;;;5054670;28;20154;-66
2022/07/15 05:52:04;;;;;;;3.90;0.80;;;14.50;99.90;;;;;;5055391;28;20051;-66
2022/07/15 05:54:30;;;;;;;1.65;0.60;;;14.40;99.90;;;;;;5055206;28;20047;-66
2022/07/15 05:56:55;;;;;;;2.05;0.40;;;14.40;99.90;;;;;;5054715;28;20128;-66
2022/07/15 05:59:21;;;;;;;3.05;0.35;;;14.50;99.90;;;;;;5054535;28;20142;-66
2022/07/15 06:01:47;;;;;;;3.92;0.50;;;14.50;99.90;;;;;;5054710;28;20048;-66
2022/07/15 06:04:13;;;;;;;2.65;0.40;;;14.60;99.90;;;;;;5053571;28;20045;-66
2022/07/15 06:06:39;;;;;;;2.40;0.30;;;14.60;99.90;;;;;;5053539;28;20041;-66
2022/07/15 06:09:05;;;;;;;1.52;0.40;;;14.60;99.90;;;;;;5053139;28;20048;-66
2022/07/15 06:11:31;;;;;;;2.42;0.40;;;14.90;99.90;;;;;;5054715;28;20128;-66
2022/07/15 06:13:56;;;;;;;6.32;0.47;;;14.80;99.90;;;;;;5053263;28;20055;-65
2022/07/15 06:16:22;;;;;;;1.40;0.40;;;14.80;99.90;;;;;;5054442;28;20131;-65
2022/07/15 06:18:50;;;;;;;1.38;0.35;;;14.90;99.90;;;;;;5054137;28;20235;-66
2022/07/15 06:21:19;;;;;;;2.22;0.20;;;15.00;99.90;;;;;;5053317;28;20049;-66
2022/07/15 06:23:44;;;;;;;3.85;0.30;;;15.00;99.90;;;;;;5054277;28;20053;-66
2022/07/15 06:26:10;;;;;;;0.50;0.25;;;15.20;99.90;;;;;;5053385;28;20049;-65
2022/07/15 06:28:36;;;;;;;2.15;0.40;;;15.40;99.90;;;;;;5053240;28;20053;-66
2022/07/15 06:31:01;;;;;;;1.00;0.30;;;15.40;99.90;;;;;;5054138;28;20099;-66
2022/07/15 06:33:27;;;;;;;2.35;0.40;;;15.50;99.90;;;;;;5036172;28;20500;-66
2022/07/15 06:35:54;;;;;;;5.07;0.40;;;15.50;99.90;;;;;;5054107;28;20087;-66
2022/07/15 06:38:20;;;;;;;1.42;0.30;;;15.60;99.90;;;;;;5053421;28;20056;-65
2022/07/15 06:40:46;;;;;;;1.30;0.30;;;15.60;99.90;;;;;;5053169;28;20049;-66
2022/07/15 06:43:12;;;;;;;1.73;0.30;;;15.60;99.90;;;;;;5053080;28;20393;-65
2022/07/15 06:45:38;;;;;;;2.25;0.30;;;15.60;99.90;;;;;;5053744;28;20107;-66
2022/07/15 06:48:04;;;;;;;1.40;0.30;;;15.60;99.90;;;;;;5053527;28;20049;-67
2022/07/15 06:50:30;;;;;;;3.10;0.28;;;15.70;99.90;;;;;;5053920;28;20060;-67
2022/07/15 06:52:56;;;;;;;3.42;0.40;;;15.60;99.90;;;;;;5053756;28;20049;-66
2022/07/15 06:55:22;;;;;;;2.10;0.17;;;15.70;99.90;;;;;;5053905;28;20047;-67
2022/07/15 06:57:47;;;;;;;2.58;0.20;;;15.70;99.90;;;;;;5053340;28;20084;-67
2022/07/15 07:00:14;;;;;;;3.63;0.45;;;15.70;99.90;;;;;;5053582;28;20053;-67
2022/07/15 07:02:41;;;;;;;2.50;0.20;;;15.70;99.90;;;;;;5063422;28;20045;-67
2022/07/15 07:05:08;;;;;;;3.97;0.93;;;15.60;99.90;;;;;;5073807;28;20412;-67
2022/07/15 07:07:34;;;;;;;1.25;0.30;;;15.60;99.90;;;;;;5073761;28;20067;-66
2022/07/15 07:10:00;;;;;;;6.47;0.30;;;15.70;99.90;;;;;;5071951;28;20545;-66
2022/07/15 07:12:26;;;;;;;1.05;0.30;;;15.60;99.90;;;;;;5072204;28;20056;-66
2022/07/15 07:14:53;;;;;;;1.45;0.30;;;15.50;99.90;;;;;;5072401;28;20132;-66
2022/07/15 07:17:19;;;;;;;2.28;0.30;;;15.40;99.90;;;;;;5073334;28;20050;-66
2022/07/15 07:19:44;;;;;;;2.55;0.30;;;15.50;99.90;;;;;;5073428;28;20072;-66
2022/07/15 07:22:10;;;;;;;0.90;0.20;;;15.40;99.90;;;;;;5072253;28;20090;-66
2022/07/15 07:24:36;;;;;;;1.17;0.20;;;15.40;99.90;;;;;;5072465;28;20165;-66
2022/07/15 07:27:02;;;;;;;1.02;0.30;;;15.50;99.90;;;;;;5072448;28;20045;-68
2022/07/15 07:29:28;;;;;;;1.77;0.30;;;15.40;99.90;;;;;;5073339;28;20043;-67
2022/07/15 07:31:54;;;;;;;3.00;0.50;;;15.60;99.90;;;;;;5073209;28;20052;-68
2022/07/15 07:34:19;;;;;;;2.13;0.28;;;15.80;99.90;;;;;;5073419;28;20037;-68
2022/07/15 07:36:46;;;;;;;0.77;0.20;;;15.90;99.90;;;;;;5073417;28;20049;-68
2022/07/15 07:39:13;;;;;;;1.35;0.22;;;16.10;99.90;;;;;;5073123;28;20561;-68
2022/07/15 07:41:39;;;;;;;2.45;0.10;;;16.70;99.90;;;;;;5072168;28;20393;-68
2022/07/15 07:44:05;;;;;;;2.38;0.25;;;16.20;99.90;;;;;;5072436;28;20047;-68
2022/07/15 07:46:31;;;;;;;1.75;0.30;;;16.30;99.90;;;;;;5072061;28;20088;-68
2022/07/15 07:48:57;;;;;;;0.52;0.20;;;16.20;99.90;;;;;;5073142;28;20079;-68
2022/07/15 07:51:23;;;;;;;1.35;0.20;;;16.20;99.90;;;;;;5073106;28;20057;-69
2022/07/15 07:53:49;;;;;;;1.48;0.17;;;16.10;99.90;;;;;;5072301;28;20053;-70
2022/07/15 07:56:15;;;;;;;0.70;0.22;;;16.10;99.90;;;;;;5073301;28;20052;-69
2022/07/15 07:58:40;;;;;;;2.28;0.32;;;16.10;99.90;;;;;;5073629;28;20438;-68
2022/07/15 08:01:06;;;;;;;1.63;0.30;;;16.10;99.90;;;;;;5076000;28;20055;-69
2022/07/15 08:03:32;;;;;;;2.15;0.30;;;16.10;99.90;;;;;;5077475;28;20532;-69
2022/07/15 08:05:59;;;;;;;0.43;0.20;;;16.00;99.90;;;;;;5077433;28;20399;-68
2022/07/15 08:08:25;;;;;;;3.40;0.20;;;16.20;99.90;;;;;;5075406;28;20052;-66
2022/07/15 08:10:55;;;;;;;1.05;0.20;;;16.10;99.90;;;;;;5076866;28;20045;-66
2022/07/15 08:13:24;;;;;;;2.20;0.30;;;16.20;99.90;;;;;;5076703;28;20488;-67
2022/07/15 08:15:53;;;;;;;2.55;0.30;;;16.30;99.90;;;;;;5075804;28;20385;-66
2022/07/15 08:18:19;;;;;;;2.33;0.20;;;16.20;99.90;;;;;;5075799;28;20048;-66
2022/07/15 08:20:44;;;;;;;0.98;0.30;;;16.40;99.90;;;;;;5076844;28;20119;-66
2022/07/15 08:23:10;;;;;;;1.67;0.20;;;16.40;99.90;;;;;;5076895;28;20565;-66
2022/07/15 08:25:37;;;;;;;1.60;0.20;;;16.60;99.90;;;;;;5076219;28;20048;-66
2022/07/15 08:28:07;;;;;;;2.30;0.35;;;16.60;99.90;;;;;;5075167;28;20488;-67
2022/07/15 08:30:33;;;;;;;1.20;0.28;;;16.80;99.90;;;;;;5076187;28;20049;-66
2022/07/15 08:33:00;;;;;;;1.02;0.20;;;16.80;99.90;;;;;;5076183;28;20049;-67
2022/07/15 08:35:27;;;;;;;1.45;0.30;;;16.90;99.90;;;;;;5074974;28;20099;-67
2022/07/15 08:37:53;;;;;;;1.15;0.38;;;16.90;99.90;;;;;;5075480;28;20049;-67
2022/07/15 08:40:18;;;;;;;2.00;0.30;;;16.90;99.90;;;;;;5074287;28;20534;-67
2022/07/15 08:42:46;;;;;;;3.47;0.30;;;16.90;99.90;;;;;;5075628;28;20076;-67
2022/07/15 08:45:13;;;;;;;1.20;0.20;;;16.90;99.90;;;;;;5076026;28;20044;-66
2022/07/15 08:47:41;;;;;;;1.30;0.20;;;17.10;99.90;;;;;;5075897;28;20044;-66
2022/07/15 08:50:11;;;;;;;1.75;0.20;;;17.10;99.90;;;;;;5075842;28;20044;-66
2022/07/15 08:52:38;;;;;;;1.95;0.30;;;17.20;99.90;;;;;;5076239;28;20066;-66
2022/07/15 08:55:06;;;;;;;2.90;0.20;;;17.30;99.90;;;;;;5075795;28;20045;-66
2022/07/15 08:57:32;;;;;;;1.45;0.20;;;17.40;99.90;;;;;;5075485;28;20132;-66
2022/07/15 08:59:58;;;;;;;1.63;0.20;;;17.40;99.90;;;;;;5075614;28;20040;-66
2022/07/15 09:02:23;;;;;;;1.85;0.35;;;17.40;99.90;;;;;;5074404;28;20047;-67
2022/07/15 09:05:16;;;;;;;0.73;0.10;;;17.40;99.90;;;;;;5074751;28;20036;-66
2022/07/15 09:07:59;;;;;;;0.30;0.15;;;17.40;99.90;;;;;;5074835;28;20127;-67
2022/07/15 09:10:53;;;;;;;0.65;0.10;;;17.40;99.90;;;;;;5072625;28;20037;-66
2022/07/15 09:13:33;;;;;;;1.85;0.17;;;17.40;99.90;;;;;;5072457;28;20044;-68
2022/07/15 09:16:04;;;;;;;4.15;0.20;;;17.40;99.90;;;;;;5066302;28;20518;-65
2022/07/15 09:18:36;;;;;;;0.90;0.30;;;17.50;99.90;;;;;;5070548;28;20052;-66
2022/07/15 09:21:02;;;;;;;0.10;0.10;;;17.40;99.90;;;;;;5070507;28;20083;-66
2022/07/15 09:23:30;;;;;;;1.23;0.10;;;17.40;99.90;;;;;;5067000;28;20110;-66
2022/07/15 09:26:21;;;;;;;2.60;0.10;;;17.50;99.90;;;;;;5069973;28;20053;-65
2022/07/15 09:28:50;;;;;;;0.40;0.10;;;17.50;99.90;;;;;;5067702;28;20049;-66
2022/07/15 09:34:23;;;;;;;1.15;0.20;;;17.50;99.90;;;;;;5069914;28;20048;-66
2022/07/15 09:36:54;;;;;;;1.60;0.10;;;17.70;99.90;;;;;;5071234;28;20052;-66
2022/07/15 09:39:24;;;;;;;0.57;0.10;;;17.60;99.90;;;;;;5071999;28;20076;-68
2022/07/15 09:41:51;;;;;;;0.95;0.10;;;17.80;99.90;;;;;;5067693;28;20090;-67
2022/07/15 09:44:21;;;;;;;1.02;0.13;;;17.90;99.90;;;;;;5070755;28;20051;-67
2022/07/15 09:46:59;;;;;;;0.25;0.20;;;18.00;99.90;;;;;;5070637;28;20131;-66
2022/07/15 09:49:25;;;;;;;2.60;0.20;;;18.10;99.90;;;;;;5068185;28;20478;-68
2022/07/15 09:52:07;;;;;;;1.38;0.10;;;18.10;99.90;;;;;;5069044;28;20131;-66
2022/07/15 09:54:35;;;;;;;;;;;18.30;99.90;;;;;;5067889;28;20547;-66
2022/07/15 09:57:06;;;;;;;1.30;0.10;;;18.40;99.90;;;;;;5069837;28;19990;-67
2022/07/15 09:59:32;;;;;;;0.77;0.08;;;18.40;99.90;;;;;;5069999;28;20062;-67
2022/07/15 10:01:59;;;;;;;0.17;0.10;;;18.60;99.90;;;;;;5068916;28;20051;-67
2022/07/15 10:04:27;;;;;;;0.50;0.13;;;18.70;99.90;;;;;;5068589;28;20056;-66
2022/07/15 10:06:54;;;;;;;2.15;0.13;;;18.80;99.90;;;;;;5069992;28;20045;-67
2022/07/15 10:09:25;;;;;;;1.85;0.20;;;18.80;99.90;;;;;;5069647;28;20422;-67
2022/07/15 10:11:54;;;;;;;3.05;0.10;;;18.90;99.90;;;;;;5068957;28;20045;-67
2022/07/15 10:14:47;;;;;;;1.70;0.20;;;18.90;99.90;;;;;;5070227;28;20048;-66
2022/07/15 10:17:18;;;;;;;3.85;0.20;;;18.70;99.90;;;;;;5068174;28;20051;-66
2022/07/15 10:20:01;;;;;;;1.10;0.17;;;18.60;99.90;;;;;;5068268;28;20113;-66
2022/07/15 10:23:01;;;;;;;1.10;0.20;;;18.50;99.90;;;;;;5068864;28;20524;-66
2022/07/15 10:25:48;;;;;;;0.28;0.10;;;18.30;99.90;;;;;;5067259;28;20070;-68
2022/07/15 10:28:17;;;;;;;1.27;0.10;;;18.20;99.90;;;;;;5068080;28;20076;-68
2022/07/15 10:30:43;;;;;;;1.33;0.17;;;18.10;99.90;;;;;;5068354;28;20063;-66
2022/07/15 10:33:19;;;;;;;1.08;0.20;;;18.10;99.90;;;;;;5068721;28;20048;-67
2022/07/15 10:35:48;;;;;;;1.05;0.20;;;18.10;99.90;;;;;;5069108;28;20044;-66
2022/07/15 10:38:28;;;;;;;1.17;0.10;;;18.10;99.90;;;;;;5067296;28;20123;-66
2022/07/15 10:41:10;;;;;;;2.88;0.20;;;18.20;99.90;;;;;;5070127;28;20051;-68
2022/07/15 10:43:40;;;;;;;0.70;0.10;;;18.20;99.90;;;;;;5069045;28;20048;-67
2022/07/15 10:46:28;;;;;;;1.10;0.20;;;18.20;99.90;;;;;;5067525;28;20377;-66
2022/07/15 10:49:00;;;;;;;1.05;0.20;;;18.30;99.90;;;;;;5051352;28;20059;-68
2022/07/15 10:51:34;;;;;;;1.45;0.20;;;18.20;99.90;;;;;;5066865;28;20507;-66
2022/07/15 10:54:02;;;;;;;0.60;0.20;;;18.30;99.90;;;;;;5068165;28;20511;-67
2022/07/15 10:56:30;;;;;;;2.42;0.30;;;18.30;99.90;;;;;;5068165;28;20047;-66
2022/07/15 10:59:14;;;;;;;1.40;0.20;;;18.50;99.90;;;;;;5067106;28;20078;-67
2022/07/15 11:01:43;;;;;;;2.08;0.20;;;18.40;99.90;;;;;;5066937;28;20056;-66
2022/07/15 11:04:17;;;;;;;0.50;0.22;;;18.40;99.90;;;;;;5067954;28;20052;-66
2022/07/15 11:07:01;;;;;;;1.88;0.20;;;18.40;99.90;;;;;;5066799;28;20063;-66
2022/07/15 11:09:53;;;;;;;1.15;0.20;;;18.50;99.90;;;;;;5066418;28;20492;-66
2022/07/15 11:12:28;;;;;;;1.58;0.20;;;18.60;99.90;;;;;;5065576;28;20052;-67
2022/07/15 11:14:59;;;;;;;0.57;0.10;;;18.70;99.90;;;;;;5066489;28;20040;-67
2022/07/15 11:17:41;;;;;;;1.27;0.10;;;18.70;99.90;;;;;;5063871;28;20079;-67
2022/07/15 11:20:13;;;;;;;0.30;0.10;;;18.70;99.90;;;;;;5066725;28;20051;-67
2022/07/15 11:22:47;;;;;;;0.50;0.10;;;18.80;99.90;;;;;;5066438;28;20052;-67
2022/07/15 11:25:41;;;;;;;1.30;0.20;;;18.60;99.90;;;;;;5067991;28;20275;-69
2022/07/15 11:28:07;;;;;;;2.33;0.20;;;18.60;99.90;;;;;;5074980;28;20044;-67
2022/07/15 11:30:53;;;;;;;0.57;0.20;;;18.50;99.90;;;;;;5065488;28;20422;-66
2022/07/15 11:33:25;;;;;;;0.82;0.10;;;18.50;99.90;;;;;;5065037;28;20044;-66
2022/07/15 11:35:55;;;;;;;3.45;0.20;;;18.50;99.90;;;;;;5065572;28;20044;-68
2022/07/15 11:38:28;;;;;;;1.42;0.10;;;18.40;99.90;;;;;;5065571;28;20044;-66
2022/07/15 11:46:31;;;;;;;0.75;0.20;;;17.90;99.90;;;;;;5063378;28;20079;-68
2022/07/15 11:48:58;;;;;;;2.85;0.32;;;17.80;99.90;;;;;;5064279;28;20084;-68
2022/07/15 11:51:27;;;;;;;0.85;0.20;;;17.80;99.90;;;;;;5065488;28;20428;-66
2022/07/15 11:53:54;;;;;;;0.73;0.20;;;17.70;99.90;;;;;;5064600;28;20048;-67
2022/07/15 11:56:20;;;;;;;0.75;0.17;;;17.60;99.90;;;;;;5063042;28;20098;-67
2022/07/15 11:58:50;;;;;;;3.60;0.15;;;17.60;99.90;;;;;;5071777;28;20476;-67
2022/07/15 12:01:23;;;;;;;1.30;0.20;;;17.60;99.90;;;;;;5069555;28;20478;-66
2022/07/15 12:03:52;;;;;;;0.60;0.20;;;17.60;99.90;;;;;;5070921;28;20048;-66
2022/07/15 12:06:30;;;;;;;0.68;0.20;;;17.60;99.90;;;;;;5071804;28;20106;-67
2022/07/15 12:09:03;;;;;;;1.30;0.20;;;17.70;99.90;;;;;;5071619;28;20068;-66
2022/07/15 12:11:33;;;;;;;;;;;17.80;99.90;;;;;;5071125;28;20055;-66
2022/07/15 12:14:06;;;;;;;0.43;0.20;;;17.80;99.90;;;;;;5071978;28;19924;-66
2022/07/15 12:16:35;;;;;;;2.75;0.40;;;18.00;99.90;;;;;;5072078;28;20442;-67
2022/07/15 12:19:08;;;;;;;0.47;0.10;;;18.10;99.90;;;;;;5069399;28;20074;-66
2022/07/15 12:21:37;;;;;;;1.10;0.13;;;18.10;99.90;;;;;;5072231;28;20048;-66
2022/07/15 12:24:12;;;;;;;2.15;0.30;;;18.50;99.90;;;;;;5069618;28;20123;-66
2022/07/15 12:26:54;;;;;;;0.50;0.20;;;18.30;99.90;;;;;;5071821;28;20109;-66
2022/07/15 12:29:23;;;;;;;0.85;0.30;;;18.30;99.90;;;;;;5071279;28;20075;-66
2022/07/15 12:31:54;;;;;;;0.52;0.30;;;18.30;99.90;;;;;;5070836;28;20536;-66
2022/07/15 12:34:20;;;;;;;0.40;0.30;;;18.20;99.90;;;;;;5071613;28;20112;-66
2022/07/15 12:36:56;;;;;;;1.65;0.40;;;18.10;99.90;;;;;;5070802;28;20442;-66
2022/07/15 12:39:22;;;;;;;1.60;0.50;;;18.00;99.90;;;;;;5068441;28;20406;-66
2022/07/15 12:42:02;;;;;;;1.13;0.68;;;17.90;99.90;;;;;;5071685;28;20044;-66
2022/07/15 12:44:30;;;;;;;2.92;0.40;;;17.80;99.90;;;;;;5069355;28;20060;-66
2022/07/15 12:47:03;;;;;;;1.13;0.40;;;17.60;99.90;;;;;;5075140;28;20051;-66
2022/07/15 12:49:41;;;;;;;0.47;0.30;;;17.50;99.90;;;;;;5073652;28;20453;-66
2022/07/15 12:52:19;;;;;;;0.98;0.43;;;17.50;99.90;;;;;;5073276;28;20123;-66
2022/07/15 12:54:46;;;;;;;1.60;0.47;;;17.40;99.90;;;;;;5072908;28;20036;-66
2022/07/15 12:57:33;;;;;;;0.90;0.45;;;17.40;99.90;;;;;;5074738;28;20392;-66
2022/07/15 13:00:00;;;;;;;3.38;0.60;;;17.30;99.90;;;;;;5074656;28;20116;-66
2022/07/15 13:02:27;;;;;;;1.10;0.60;;;17.30;99.90;;;;;;5057247;28;20044;-66
2022/07/15 13:04:54;;;;;;;2.22;0.77;;;17.30;99.90;;;;;;5075065;28;20098;-66